sensor_id;sensor_type;location;lat;lon;timestamp;temperature;humidity
67557;DHT22;54387;53.526;49.300;2023-05-07T00:00:22;6.10;62.20
67557;DHT22;54387;53.526;49.300;2023-05-07T00:02:48;6.10;62.10
67557;DHT22;54387;53.526;49.300;2023-05-07T00:05:15;6.00;61.90
67557;DHT22;54387;53.526;49.300;2023-05-07T00:07:41;6.00;61.80
67557;DHT22;54387;53.526;49.300;2023-05-07T00:10:07;5.90;61.70
67557;DHT22;54387;53.526;49.300;2023-05-07T00:12:34;5.90;61.70
67557;DHT22;54387;53.526;49.300;2023-05-07T00:15:01;5.90;61.70
67557;DHT22;54387;53.526;49.300;2023-05-07T00:17:27;5.90;61.70
67557;DHT22;54387;53.526;49.300;2023-05-07T00:19:53;5.90;61.70
67557;DHT22;54387;53.526;49.300;2023-05-07T00:22:20;5.80;61.60
67557;DHT22;54387;53.526;49.300;2023-05-07T00:24:47;5.80;61.60
67557;DHT22;54387;53.526;49.300;2023-05-07T00:27:13;5.80;61.50
67557;DHT22;54387;53.526;49.300;2023-05-07T00:29:39;5.80;61.50
67557;DHT22;54387;53.526;49.300;2023-05-07T00:32:05;5.70;61.40
67557;DHT22;54387;53.526;49.300;2023-05-07T00:34:32;5.70;61.40
67557;DHT22;54387;53.526;49.300;2023-05-07T00:36:58;5.60;61.40
67557;DHT22;54387;53.526;49.300;2023-05-07T00:39:24;5.60;61.30
67557;DHT22;54387;53.526;49.300;2023-05-07T00:41:51;5.60;61.30
67557;DHT22;54387;53.526;49.300;2023-05-07T00:44:17;5.60;61.30
67557;DHT22;54387;53.526;49.300;2023-05-07T00:46:44;5.60;61.30
67557;DHT22;54387;53.526;49.300;2023-05-07T00:49:15;5.50;61.20
67557;DHT22;54387;53.526;49.300;2023-05-07T00:51:42;5.50;61.10
67557;DHT22;54387;53.526;49.300;2023-05-07T00:54:08;5.50;61.10
67557;DHT22;54387;53.526;49.300;2023-05-07T00:56:35;5.50;61.10
67557;DHT22;54387;53.526;49.300;2023-05-07T00:59:02;5.50;61.00
67557;DHT22;54387;53.526;49.300;2023-05-07T01:01:28;5.40;61.00
67557;DHT22;54387;53.526;49.300;2023-05-07T01:03:55;5.40;60.90
67557;DHT22;54387;53.526;49.300;2023-05-07T01:06:21;5.30;60.90
67557;DHT22;54387;53.526;49.300;2023-05-07T01:08:48;5.40;60.90
67557;DHT22;54387;53.526;49.300;2023-05-07T01:11:16;5.30;60.90
67557;DHT22;54387;53.526;49.300;2023-05-07T01:13:43;5.40;60.80
67557;DHT22;54387;53.526;49.300;2023-05-07T01:16:12;5.30;60.70
67557;DHT22;54387;53.526;49.300;2023-05-07T01:18:38;5.30;60.70
67557;DHT22;54387;53.526;49.300;2023-05-07T01:21:05;5.30;60.60
67557;DHT22;54387;53.526;49.300;2023-05-07T01:23:31;5.30;60.60
67557;DHT22;54387;53.526;49.300;2023-05-07T01:25:58;5.30;60.60
67557;DHT22;54387;53.526;49.300;2023-05-07T01:28:25;5.30;60.60
67557;DHT22;54387;53.526;49.300;2023-05-07T01:30:55;5.30;60.60
67557;DHT22;54387;53.526;49.300;2023-05-07T01:33:22;5.20;60.60
67557;DHT22;54387;53.526;49.300;2023-05-07T01:35:53;5.20;60.60
67557;DHT22;54387;53.526;49.300;2023-05-07T01:38:20;5.20;60.50
67557;DHT22;54387;53.526;49.300;2023-05-07T01:40:47;5.20;60.40
67557;DHT22;54387;53.526;49.300;2023-05-07T01:43:13;5.20;60.40
67557;DHT22;54387;53.526;49.300;2023-05-07T01:45:40;5.20;60.40
67557;DHT22;54387;53.526;49.300;2023-05-07T01:48:07;5.20;60.30
67557;DHT22;54387;53.526;49.300;2023-05-07T01:50:33;5.20;60.40
67557;DHT22;54387;53.526;49.300;2023-05-07T01:52:59;5.10;60.20
67557;DHT22;54387;53.526;49.300;2023-05-07T01:55:27;5.20;60.20
67557;DHT22;54387;53.526;49.300;2023-05-07T01:57:53;5.20;60.20
67557;DHT22;54387;53.526;49.300;2023-05-07T02:00:19;5.20;60.20
67557;DHT22;54387;53.526;49.300;2023-05-07T02:02:46;5.20;60.10
67557;DHT22;54387;53.526;49.300;2023-05-07T02:05:12;5.30;60.10
67557;DHT22;54387;53.526;49.300;2023-05-07T02:07:38;5.30;60.10
67557;DHT22;54387;53.526;49.300;2023-05-07T02:10:04;5.40;60.10
67557;DHT22;54387;53.526;49.300;2023-05-07T02:12:31;5.40;60.00
67557;DHT22;54387;53.526;49.300;2023-05-07T02:14:57;5.40;59.90
67557;DHT22;54387;53.526;49.300;2023-05-07T02:17:24;5.40;59.90
67557;DHT22;54387;53.526;49.300;2023-05-07T02:19:50;5.50;60.00
67557;DHT22;54387;53.526;49.300;2023-05-07T02:22:16;5.50;59.70
67557;DHT22;54387;53.526;49.300;2023-05-07T02:24:42;5.50;59.80
67557;DHT22;54387;53.526;49.300;2023-05-07T02:27:09;5.60;59.80
67557;DHT22;54387;53.526;49.300;2023-05-07T02:29:35;5.60;59.70
67557;DHT22;54387;53.526;49.300;2023-05-07T02:32:01;5.70;59.50
67557;DHT22;54387;53.526;49.300;2023-05-07T02:34:28;5.70;59.40
67557;DHT22;54387;53.526;49.300;2023-05-07T02:36:55;5.70;59.30
67557;DHT22;54387;53.526;49.300;2023-05-07T02:39:21;5.70;59.30
67557;DHT22;54387;53.526;49.300;2023-05-07T02:41:47;5.70;59.20
67557;DHT22;54387;53.526;49.300;2023-05-07T02:44:14;5.70;59.20
67557;DHT22;54387;53.526;49.300;2023-05-07T02:46:40;5.80;59.40
67557;DHT22;54387;53.526;49.300;2023-05-07T02:49:06;5.90;59.20
67557;DHT22;54387;53.526;49.300;2023-05-07T02:51:32;5.90;59.10
67557;DHT22;54387;53.526;49.300;2023-05-07T02:53:58;6.00;58.70
67557;DHT22;54387;53.526;49.300;2023-05-07T02:56:26;6.00;58.70
67557;DHT22;54387;53.526;49.300;2023-05-07T02:58:53;6.20;58.80
67557;DHT22;54387;53.526;49.300;2023-05-07T03:01:19;6.20;58.00
67557;DHT22;54387;53.526;49.300;2023-05-07T03:03:46;6.30;57.90
67557;DHT22;54387;53.526;49.300;2023-05-07T03:06:12;6.40;57.90
67557;DHT22;54387;53.526;49.300;2023-05-07T03:08:39;6.40;57.60
67557;DHT22;54387;53.526;49.300;2023-05-07T03:11:05;6.50;57.00
67557;DHT22;54387;53.526;49.300;2023-05-07T03:13:31;6.60;56.80
67557;DHT22;54387;53.526;49.300;2023-05-07T03:15:57;6.70;56.90
67557;DHT22;54387;53.526;49.300;2023-05-07T03:18:24;6.80;56.70
67557;DHT22;54387;53.526;49.300;2023-05-07T03:20:51;6.90;55.90
67557;DHT22;54387;53.526;49.300;2023-05-07T03:23:17;6.90;55.50
67557;DHT22;54387;53.526;49.300;2023-05-07T03:25:43;7.00;54.50
67557;DHT22;54387;53.526;49.300;2023-05-07T03:28:09;7.10;54.60
67557;DHT22;54387;53.526;49.300;2023-05-07T03:30:36;7.10;54.50
67557;DHT22;54387;53.526;49.300;2023-05-07T03:33:02;7.20;54.40
67557;DHT22;54387;53.526;49.300;2023-05-07T03:35:28;7.30;53.80
67557;DHT22;54387;53.526;49.300;2023-05-07T03:37:54;7.40;53.60
67557;DHT22;54387;53.526;49.300;2023-05-07T03:40:21;7.40;53.50
67557;DHT22;54387;53.526;49.300;2023-05-07T03:42:47;7.50;53.50
67557;DHT22;54387;53.526;49.300;2023-05-07T03:45:13;7.60;53.60
67557;DHT22;54387;53.526;49.300;2023-05-07T03:47:39;7.70;53.50
67557;DHT22;54387;53.526;49.300;2023-05-07T03:50:06;7.80;53.50
67557;DHT22;54387;53.526;49.300;2023-05-07T03:52:32;7.80;53.20
67557;DHT22;54387;53.526;49.300;2023-05-07T03:54:58;7.90;52.40
67557;DHT22;54387;53.526;49.300;2023-05-07T03:57:25;7.90;51.80
67557;DHT22;54387;53.526;49.300;2023-05-07T03:59:51;7.90;51.60
67557;DHT22;54387;53.526;49.300;2023-05-07T04:02:17;7.90;51.20
67557;DHT22;54387;53.526;49.300;2023-05-07T04:04:43;8.00;50.90
67557;DHT22;54387;53.526;49.300;2023-05-07T04:07:09;8.10;50.90
67557;DHT22;54387;53.526;49.300;2023-05-07T04:09:36;8.10;50.30
67557;DHT22;54387;53.526;49.300;2023-05-07T04:12:05;8.10;49.90
67557;DHT22;54387;53.526;49.300;2023-05-07T04:14:31;8.10;50.20
67557;DHT22;54387;53.526;49.300;2023-05-07T04:17:00;8.20;50.30
67557;DHT22;54387;53.526;49.300;2023-05-07T04:19:27;8.20;50.00
67557;DHT22;54387;53.526;49.300;2023-05-07T04:21:53;8.30;49.60
67557;DHT22;54387;53.526;49.300;2023-05-07T04:24:19;8.30;49.80
67557;DHT22;54387;53.526;49.300;2023-05-07T04:26:48;8.40;49.70
67557;DHT22;54387;53.526;49.300;2023-05-07T04:29:15;8.50;49.20
67557;DHT22;54387;53.526;49.300;2023-05-07T04:31:41;8.60;47.70
67557;DHT22;54387;53.526;49.300;2023-05-07T04:34:10;8.60;46.70
67557;DHT22;54387;53.526;49.300;2023-05-07T04:36:39;8.60;46.60
67557;DHT22;54387;53.526;49.300;2023-05-07T04:39:14;8.60;45.80
67557;DHT22;54387;53.526;49.300;2023-05-07T04:41:41;8.60;45.20
67557;DHT22;54387;53.526;49.300;2023-05-07T04:44:13;8.60;45.50
67557;DHT22;54387;53.526;49.300;2023-05-07T04:46:40;8.60;44.50
67557;DHT22;54387;53.526;49.300;2023-05-07T04:49:06;8.60;44.40
67557;DHT22;54387;53.526;49.300;2023-05-07T04:51:36;8.70;44.30
67557;DHT22;54387;53.526;49.300;2023-05-07T04:54:04;8.60;44.10
67557;DHT22;54387;53.526;49.300;2023-05-07T04:56:33;8.70;43.60
67557;DHT22;54387;53.526;49.300;2023-05-07T04:59:05;8.80;43.60
67557;DHT22;54387;53.526;49.300;2023-05-07T05:01:32;8.80;43.60
67557;DHT22;54387;53.526;49.300;2023-05-07T05:03:59;8.90;43.00
67557;DHT22;54387;53.526;49.300;2023-05-07T05:06:29;8.90;42.60
67557;DHT22;54387;53.526;49.300;2023-05-07T05:08:58;8.90;42.40
67557;DHT22;54387;53.526;49.300;2023-05-07T05:11:30;8.90;41.10
67557;DHT22;54387;53.526;49.300;2023-05-07T05:14:04;9.00;41.50
67557;DHT22;54387;53.526;49.300;2023-05-07T05:16:33;9.00;41.10
67557;DHT22;54387;53.526;49.300;2023-05-07T05:19:10;9.00;41.50
67557;DHT22;54387;53.526;49.300;2023-05-07T05:21:36;9.10;41.20
67557;DHT22;54387;53.526;49.300;2023-05-07T05:24:02;9.20;41.40
67557;DHT22;54387;53.526;49.300;2023-05-07T05:26:28;9.20;41.30
67557;DHT22;54387;53.526;49.300;2023-05-07T05:28:54;9.30;41.00
67557;DHT22;54387;53.526;49.300;2023-05-07T05:31:21;9.30;40.80
67557;DHT22;54387;53.526;49.300;2023-05-07T05:33:47;9.30;40.90
67557;DHT22;54387;53.526;49.300;2023-05-07T05:36:13;9.40;40.80
67557;DHT22;54387;53.526;49.300;2023-05-07T05:38:42;9.40;40.60
67557;DHT22;54387;53.526;49.300;2023-05-07T05:41:09;9.40;39.80
67557;DHT22;54387;53.526;49.300;2023-05-07T05:43:36;9.40;39.80
67557;DHT22;54387;53.526;49.300;2023-05-07T05:46:02;9.30;39.40
67557;DHT22;54387;53.526;49.300;2023-05-07T05:48:33;9.30;40.00
67557;DHT22;54387;53.526;49.300;2023-05-07T05:50:59;9.20;40.20
67557;DHT22;54387;53.526;49.300;2023-05-07T05:53:28;9.10;40.60
67557;DHT22;54387;53.526;49.300;2023-05-07T05:55:54;9.20;40.90
67557;DHT22;54387;53.526;49.300;2023-05-07T05:58:21;9.20;40.10
67557;DHT22;54387;53.526;49.300;2023-05-07T06:00:49;9.20;40.40
67557;DHT22;54387;53.526;49.300;2023-05-07T06:03:20;9.30;39.80
67557;DHT22;54387;53.526;49.300;2023-05-07T06:05:52;9.20;39.20
67557;DHT22;54387;53.526;49.300;2023-05-07T06:08:35;9.30;38.90
67557;DHT22;54387;53.526;49.300;2023-05-07T06:11:04;9.40;38.00
67557;DHT22;54387;53.526;49.300;2023-05-07T06:13:35;9.50;37.60
67557;DHT22;54387;53.526;49.300;2023-05-07T06:16:07;9.50;37.30
67557;DHT22;54387;53.526;49.300;2023-05-07T06:18:34;9.70;37.60
67557;DHT22;54387;53.526;49.300;2023-05-07T06:21:02;9.80;38.00
67557;DHT22;54387;53.526;49.300;2023-05-07T06:23:28;9.80;36.80
67557;DHT22;54387;53.526;49.300;2023-05-07T06:25:54;9.80;36.60
67557;DHT22;54387;53.526;49.300;2023-05-07T06:28:20;9.80;36.20
67557;DHT22;54387;53.526;49.300;2023-05-07T06:30:46;9.80;35.80
67557;DHT22;54387;53.526;49.300;2023-05-07T06:33:14;9.80;36.30
67557;DHT22;54387;53.526;49.300;2023-05-07T06:35:43;9.80;36.30
67557;DHT22;54387;53.526;49.300;2023-05-07T06:38:14;9.80;36.60
67557;DHT22;54387;53.526;49.300;2023-05-07T06:40:40;10.00;35.80
67557;DHT22;54387;53.526;49.300;2023-05-07T06:43:13;10.00;34.80
67557;DHT22;54387;53.526;49.300;2023-05-07T06:45:39;10.00;34.50
67557;DHT22;54387;53.526;49.300;2023-05-07T06:48:05;9.80;34.20
67557;DHT22;54387;53.526;49.300;2023-05-07T06:50:31;9.80;34.20
67557;DHT22;54387;53.526;49.300;2023-05-07T06:52:57;9.90;34.60
67557;DHT22;54387;53.526;49.300;2023-05-07T06:55:23;10.00;34.00
67557;DHT22;54387;53.526;49.300;2023-05-07T06:57:49;10.10;33.30
67557;DHT22;54387;53.526;49.300;2023-05-07T07:00:15;10.20;33.10
67557;DHT22;54387;53.526;49.300;2023-05-07T07:02:44;10.30;31.20
67557;DHT22;54387;53.526;49.300;2023-05-07T07:05:10;10.30;30.90
67557;DHT22;54387;53.526;49.300;2023-05-07T07:07:39;10.30;30.70
67557;DHT22;54387;53.526;49.300;2023-05-07T07:10:05;10.30;30.40
67557;DHT22;54387;53.526;49.300;2023-05-07T07:12:34;10.40;30.60
67557;DHT22;54387;53.526;49.300;2023-05-07T07:15:00;10.50;30.00
67557;DHT22;54387;53.526;49.300;2023-05-07T07:17:27;10.60;30.40
67557;DHT22;54387;53.526;49.300;2023-05-07T07:19:54;10.60;30.40
67557;DHT22;54387;53.526;49.300;2023-05-07T07:22:20;10.60;29.60
67557;DHT22;54387;53.526;49.300;2023-05-07T07:24:46;10.60;28.60
67557;DHT22;54387;53.526;49.300;2023-05-07T07:27:12;10.40;29.10
67557;DHT22;54387;53.526;49.300;2023-05-07T07:29:38;10.30;30.00
67557;DHT22;54387;53.526;49.300;2023-05-07T07:32:07;10.30;31.10
67557;DHT22;54387;53.526;49.300;2023-05-07T07:34:34;10.40;29.70
67557;DHT22;54387;53.526;49.300;2023-05-07T07:37:00;10.50;30.00
67557;DHT22;54387;53.526;49.300;2023-05-07T07:39:31;10.70;30.00
67557;DHT22;54387;53.526;49.300;2023-05-07T07:41:57;11.00;30.20
67557;DHT22;54387;53.526;49.300;2023-05-07T07:44:23;11.50;29.80
67557;DHT22;54387;53.526;49.300;2023-05-07T07:46:49;11.60;29.60
67557;DHT22;54387;53.526;49.300;2023-05-07T07:49:16;11.70;29.40
67557;DHT22;54387;53.526;49.300;2023-05-07T07:51:42;11.80;29.20
67557;DHT22;54387;53.526;49.300;2023-05-07T07:54:08;12.10;28.90
67557;DHT22;54387;53.526;49.300;2023-05-07T07:56:37;12.30;28.70
67557;DHT22;54387;53.526;49.300;2023-05-07T07:59:03;12.30;28.70
67557;DHT22;54387;53.526;49.300;2023-05-07T08:01:29;12.30;28.80
67557;DHT22;54387;53.526;49.300;2023-05-07T08:03:59;12.40;29.10
67557;DHT22;54387;53.526;49.300;2023-05-07T08:06:25;12.50;28.60
67557;DHT22;54387;53.526;49.300;2023-05-07T08:08:53;12.50;28.40
67557;DHT22;54387;53.526;49.300;2023-05-07T08:11:19;12.40;27.90
67557;DHT22;54387;53.526;49.300;2023-05-07T08:13:47;12.00;27.60
67557;DHT22;54387;53.526;49.300;2023-05-07T08:16:19;11.80;28.00
67557;DHT22;54387;53.526;49.300;2023-05-07T08:18:46;11.70;28.20
67557;DHT22;54387;53.526;49.300;2023-05-07T08:21:12;11.70;28.40
67557;DHT22;54387;53.526;49.300;2023-05-07T08:23:47;11.80;28.30
67557;DHT22;54387;53.526;49.300;2023-05-07T08:26:13;11.90;28.70
67557;DHT22;54387;53.526;49.300;2023-05-07T08:28:39;12.00;28.60
67557;DHT22;54387;53.526;49.300;2023-05-07T08:31:05;12.10;28.00
67557;DHT22;54387;53.526;49.300;2023-05-07T08:33:31;12.10;27.50
67557;DHT22;54387;53.526;49.300;2023-05-07T08:35:57;12.10;27.00
67557;DHT22;54387;53.526;49.300;2023-05-07T08:38:24;12.00;27.00
67557;DHT22;54387;53.526;49.300;2023-05-07T08:40:49;12.00;27.80
67557;DHT22;54387;53.526;49.300;2023-05-07T08:43:16;12.20;28.00
67557;DHT22;54387;53.526;49.300;2023-05-07T08:45:42;12.40;28.00
67557;DHT22;54387;53.526;49.300;2023-05-07T08:48:15;12.50;27.80
67557;DHT22;54387;53.526;49.300;2023-05-07T08:50:41;12.50;27.40
67557;DHT22;54387;53.526;49.300;2023-05-07T08:53:07;12.30;27.40
67557;DHT22;54387;53.526;49.300;2023-05-07T08:55:33;12.40;27.00
67557;DHT22;54387;53.526;49.300;2023-05-07T08:57:59;12.40;26.80
67557;DHT22;54387;53.526;49.300;2023-05-07T09:00:26;12.20;26.60
67557;DHT22;54387;53.526;49.300;2023-05-07T09:02:53;12.10;26.70
67557;DHT22;54387;53.526;49.300;2023-05-07T09:05:19;12.20;27.10
67557;DHT22;54387;53.526;49.300;2023-05-07T09:07:46;12.40;27.40
67557;DHT22;54387;53.526;49.300;2023-05-07T09:10:12;12.70;27.00
67557;DHT22;54387;53.526;49.300;2023-05-07T09:12:39;12.90;26.60
67557;DHT22;54387;53.526;49.300;2023-05-07T09:15:05;13.20;26.90
67557;DHT22;54387;53.526;49.300;2023-05-07T09:17:36;13.60;26.40
67557;DHT22;54387;53.526;49.300;2023-05-07T09:20:03;14.10;26.00
67557;DHT22;54387;53.526;49.300;2023-05-07T09:22:33;14.40;26.30
67557;DHT22;54387;53.526;49.300;2023-05-07T09:24:59;15.10;25.60
67557;DHT22;54387;53.526;49.300;2023-05-07T09:27:26;16.30;25.40
67557;DHT22;54387;53.526;49.300;2023-05-07T09:29:52;17.90;25.10
67557;DHT22;54387;53.526;49.300;2023-05-07T09:32:18;19.10;23.20
67557;DHT22;54387;53.526;49.300;2023-05-07T09:34:44;20.10;22.50
67557;DHT22;54387;53.526;49.300;2023-05-07T09:37:10;21.90;21.60
67557;DHT22;54387;53.526;49.300;2023-05-07T09:42:06;25.20;19.70
67557;DHT22;54387;53.526;49.300;2023-05-07T09:44:33;25.20;19.10
67557;DHT22;54387;53.526;49.300;2023-05-07T09:46:59;25.90;18.40
67557;DHT22;54387;53.526;49.300;2023-05-07T09:49:27;26.10;18.40
67557;DHT22;54387;53.526;49.300;2023-05-07T09:51:55;25.00;16.40
67557;DHT22;54387;53.526;49.300;2023-05-07T09:54:22;24.80;17.10
67557;DHT22;54387;53.526;49.300;2023-05-07T09:56:48;26.00;17.80
67557;DHT22;54387;53.526;49.300;2023-05-07T09:59:15;28.10;16.70
67557;DHT22;54387;53.526;49.300;2023-05-07T10:01:42;29.60;16.50
67557;DHT22;54387;53.526;49.300;2023-05-07T10:04:11;30.20;15.40
67557;DHT22;54387;53.526;49.300;2023-05-07T10:06:38;29.60;15.40
67557;DHT22;54387;53.526;49.300;2023-05-07T10:09:04;30.60;15.40
67557;DHT22;54387;53.526;49.300;2023-05-07T10:11:33;32.40;15.70
67557;DHT22;54387;53.526;49.300;2023-05-07T10:14:01;33.70;15.50
67557;DHT22;54387;53.526;49.300;2023-05-07T10:16:40;32.80;14.50
67557;DHT22;54387;53.526;49.300;2023-05-07T10:19:07;32.70;15.00
67557;DHT22;54387;53.526;49.300;2023-05-07T10:21:36;33.50;15.10
67557;DHT22;54387;53.526;49.300;2023-05-07T10:24:06;34.70;14.80
67557;DHT22;54387;53.526;49.300;2023-05-07T10:26:43;35.50;14.80
67557;DHT22;54387;53.526;49.300;2023-05-07T10:29:18;36.70;14.20
67557;DHT22;54387;53.526;49.300;2023-05-07T10:34:17;37.40;13.90
67557;DHT22;54387;53.526;49.300;2023-05-07T10:36:47;36.70;13.70
67557;DHT22;54387;53.526;49.300;2023-05-07T10:39:14;34.70;14.40
67557;DHT22;54387;53.526;49.300;2023-05-07T10:41:43;32.20;13.50
67557;DHT22;54387;53.526;49.300;2023-05-07T10:44:11;30.80;14.00
67557;DHT22;54387;53.526;49.300;2023-05-07T10:47:06;31.20;14.40
67557;DHT22;54387;53.526;49.300;2023-05-07T10:54:47;32.00;14.50
67557;DHT22;54387;53.526;49.300;2023-05-07T10:57:34;33.00;13.80
67557;DHT22;54387;53.526;49.300;2023-05-07T11:00:03;33.30;13.50
67557;DHT22;54387;53.526;49.300;2023-05-07T11:05:25;30.50;14.20
67557;DHT22;54387;53.526;49.300;2023-05-07T11:08:00;31.30;14.60
67557;DHT22;54387;53.526;49.300;2023-05-07T11:13:10;34.90;14.50
67557;DHT22;54387;53.526;49.300;2023-05-07T11:15:38;35.50;13.50
67557;DHT22;54387;53.526;49.300;2023-05-07T11:18:04;35.00;13.20
67557;DHT22;54387;53.526;49.300;2023-05-07T11:20:51;34.60;13.10
67557;DHT22;54387;53.526;49.300;2023-05-07T11:24:17;32.70;12.70
67557;DHT22;54387;53.526;49.300;2023-05-07T11:26:13;30.20;13.10
67557;DHT22;54387;53.526;49.300;2023-05-07T11:28:41;27.90;13.50
67557;DHT22;54387;53.526;49.300;2023-05-07T11:31:07;26.30;13.80
67557;DHT22;54387;53.526;49.300;2023-05-07T11:33:34;25.00;14.10
67557;DHT22;54387;53.526;49.300;2023-05-07T11:36:04;23.80;14.70
67557;DHT22;54387;53.526;49.300;2023-05-07T11:38:30;22.50;15.00
67557;DHT22;54387;53.526;49.300;2023-05-07T11:41:00;21.50;15.60
67557;DHT22;54387;53.526;49.300;2023-05-07T11:43:33;20.70;16.10
67557;DHT22;54387;53.526;49.300;2023-05-07T11:46:11;20.30;16.30
67557;DHT22;54387;53.526;49.300;2023-05-07T11:48:37;20.40;16.80
67557;DHT22;54387;53.526;49.300;2023-05-07T11:51:05;21.10;16.90
67557;DHT22;54387;53.526;49.300;2023-05-07T11:53:38;22.90;16.60
67557;DHT22;54387;53.526;49.300;2023-05-07T11:56:11;24.60;15.60
67557;DHT22;54387;53.526;49.300;2023-05-07T11:58:37;25.00;15.10
67557;DHT22;54387;53.526;49.300;2023-05-07T12:01:03;24.30;14.80
67557;DHT22;54387;53.526;49.300;2023-05-07T12:03:29;23.70;15.10
67557;DHT22;54387;53.526;49.300;2023-05-07T12:05:55;23.20;15.20
67557;DHT22;54387;53.526;49.300;2023-05-07T12:08:21;22.90;15.20
67557;DHT22;54387;53.526;49.300;2023-05-07T12:10:50;22.70;15.50
67557;DHT22;54387;53.526;49.300;2023-05-07T12:13:21;22.80;15.50
67557;DHT22;54387;53.526;49.300;2023-05-07T12:15:56;23.10;15.40
67557;DHT22;54387;53.526;49.300;2023-05-07T12:18:23;24.50;15.50
67557;DHT22;54387;53.526;49.300;2023-05-07T12:20:49;26.50;15.60
67557;DHT22;54387;53.526;49.300;2023-05-07T12:23:16;27.10;13.70
67557;DHT22;54387;53.526;49.300;2023-05-07T12:25:42;26.50;13.80
67557;DHT22;54387;53.526;49.300;2023-05-07T12:28:12;25.60;13.80
67557;DHT22;54387;53.526;49.300;2023-05-07T12:30:39;24.20;14.30
67557;DHT22;54387;53.526;49.300;2023-05-07T12:33:05;23.00;14.80
67557;DHT22;54387;53.526;49.300;2023-05-07T12:35:33;22.10;15.50
67557;DHT22;54387;53.526;49.300;2023-05-07T12:38:01;22.30;15.80
67557;DHT22;54387;53.526;49.300;2023-05-07T12:40:36;23.50;15.70
67557;DHT22;54387;53.526;49.300;2023-05-07T12:43:02;25.30;15.10
67557;DHT22;54387;53.526;49.300;2023-05-07T12:45:28;26.10;14.70
67557;DHT22;54387;53.526;49.300;2023-05-07T12:47:54;26.50;14.40
67557;DHT22;54387;53.526;49.300;2023-05-07T12:50:22;26.70;14.10
67557;DHT22;54387;53.526;49.300;2023-05-07T12:52:48;27.10;14.20
67557;DHT22;54387;53.526;49.300;2023-05-07T12:55:14;27.90;14.40
67557;DHT22;54387;53.526;49.300;2023-05-07T12:57:42;28.50;14.20
67557;DHT22;54387;53.526;49.300;2023-05-07T13:00:08;28.40;14.10
67557;DHT22;54387;53.526;49.300;2023-05-07T13:02:38;28.10;14.30
67557;DHT22;54387;53.526;49.300;2023-05-07T13:05:04;27.80;14.20
67557;DHT22;54387;53.526;49.300;2023-05-07T13:07:30;27.30;13.80
67557;DHT22;54387;53.526;49.300;2023-05-07T13:09:56;26.00;13.70
67557;DHT22;54387;53.526;49.300;2023-05-07T13:12:22;24.80;14.00
67557;DHT22;54387;53.526;49.300;2023-05-07T13:14:48;23.90;14.50
67557;DHT22;54387;53.526;49.300;2023-05-07T13:17:14;22.70;14.80
67557;DHT22;54387;53.526;49.300;2023-05-07T13:19:41;21.60;15.30
67557;DHT22;54387;53.526;49.300;2023-05-07T13:22:07;20.50;15.80
67557;DHT22;54387;53.526;49.300;2023-05-07T13:24:33;19.80;16.40
67557;DHT22;54387;53.526;49.300;2023-05-07T13:26:59;19.30;16.90
67557;DHT22;54387;53.526;49.300;2023-05-07T13:29:25;18.70;17.20
67557;DHT22;54387;53.526;49.300;2023-05-07T13:31:56;18.30;17.50
67557;DHT22;54387;53.526;49.300;2023-05-07T13:34:22;17.90;17.90
67557;DHT22;54387;53.526;49.300;2023-05-07T13:36:48;17.40;18.40
67557;DHT22;54387;53.526;49.300;2023-05-07T13:39:14;17.00;18.70
67557;DHT22;54387;53.526;49.300;2023-05-07T13:41:40;16.80;18.90
67557;DHT22;54387;53.526;49.300;2023-05-07T13:44:06;16.70;19.20
67557;DHT22;54387;53.526;49.300;2023-05-07T13:46:32;16.70;19.30
67557;DHT22;54387;53.526;49.300;2023-05-07T13:48:58;16.90;19.30
67557;DHT22;54387;53.526;49.300;2023-05-07T13:51:24;17.20;19.30
67557;DHT22;54387;53.526;49.300;2023-05-07T13:53:51;17.40;19.20
67557;DHT22;54387;53.526;49.300;2023-05-07T13:56:18;17.10;19.10
67557;DHT22;54387;53.526;49.300;2023-05-07T13:58:44;16.70;19.50
67557;DHT22;54387;53.526;49.300;2023-05-07T14:01:10;16.40;19.70
67557;DHT22;54387;53.526;49.300;2023-05-07T14:03:36;16.40;19.80
67557;DHT22;54387;53.526;49.300;2023-05-07T14:06:03;16.30;19.80
67557;DHT22;54387;53.526;49.300;2023-05-07T14:08:29;16.20;19.90
67557;DHT22;54387;53.526;49.300;2023-05-07T14:10:55;16.00;20.10
67557;DHT22;54387;53.526;49.300;2023-05-07T14:13:21;15.80;20.30
67557;DHT22;54387;53.526;49.300;2023-05-07T14:15:47;15.80;20.40
67557;DHT22;54387;53.526;49.300;2023-05-07T14:18:15;16.00;20.60
67557;DHT22;54387;53.526;49.300;2023-05-07T14:20:41;16.20;20.40
67557;DHT22;54387;53.526;49.300;2023-05-07T14:23:12;15.90;20.20
67557;DHT22;54387;53.526;49.300;2023-05-07T14:25:38;15.40;20.60
67557;DHT22;54387;53.526;49.300;2023-05-07T14:28:04;15.00;20.70
67557;DHT22;54387;53.526;49.300;2023-05-07T14:30:30;14.60;21.00
67557;DHT22;54387;53.526;49.300;2023-05-07T14:32:56;14.30;21.50
67557;DHT22;54387;53.526;49.300;2023-05-07T14:35:22;14.40;21.90
67557;DHT22;54387;53.526;49.300;2023-05-07T14:37:50;14.80;21.60
67557;DHT22;54387;53.526;49.300;2023-05-07T14:40:16;15.70;21.40
67557;DHT22;54387;53.526;49.300;2023-05-07T14:42:43;16.70;20.80
67557;DHT22;54387;53.526;49.300;2023-05-07T14:45:09;17.20;20.10
67557;DHT22;54387;53.526;49.300;2023-05-07T14:47:35;17.50;20.00
67557;DHT22;54387;53.526;49.300;2023-05-07T14:50:01;17.40;19.80
67557;DHT22;54387;53.526;49.300;2023-05-07T14:52:27;17.00;19.80
67557;DHT22;54387;53.526;49.300;2023-05-07T14:54:53;16.40;19.90
67557;DHT22;54387;53.526;49.300;2023-05-07T14:57:19;15.70;20.20
67557;DHT22;54387;53.526;49.300;2023-05-07T14:59:45;15.10;20.60
67557;DHT22;54387;53.526;49.300;2023-05-07T15:02:12;14.50;20.90
67557;DHT22;54387;53.526;49.300;2023-05-07T15:04:38;14.00;21.30
67557;DHT22;54387;53.526;49.300;2023-05-07T15:07:11;13.60;21.60
67557;DHT22;54387;53.526;49.300;2023-05-07T15:09:43;13.20;21.70
67557;DHT22;54387;53.526;49.300;2023-05-07T15:12:10;12.90;22.00
67557;DHT22;54387;53.526;49.300;2023-05-07T15:14:37;12.70;22.20
67557;DHT22;54387;53.526;49.300;2023-05-07T15:17:03;12.50;22.60
67557;DHT22;54387;53.526;49.300;2023-05-07T15:19:30;12.30;22.90
67557;DHT22;54387;53.526;49.300;2023-05-07T15:21:57;12.00;23.00
67557;DHT22;54387;53.526;49.300;2023-05-07T15:24:23;11.90;23.10
67557;DHT22;54387;53.526;49.300;2023-05-07T15:26:51;11.80;23.20
67557;DHT22;54387;53.526;49.300;2023-05-07T15:29:17;11.60;23.30
67557;DHT22;54387;53.526;49.300;2023-05-07T15:31:43;11.50;23.40
67557;DHT22;54387;53.526;49.300;2023-05-07T15:34:09;11.40;23.40
67557;DHT22;54387;53.526;49.300;2023-05-07T15:36:35;11.20;23.60
67557;DHT22;54387;53.526;49.300;2023-05-07T15:39:02;11.10;23.90